createdAt,value
2018-11-12T00:02:11.057Z,10.47
2018-11-12T00:04:38.832Z,10.42
2018-11-12T00:07:07.746Z,10.42
2018-11-12T00:09:36.068Z,10.44
2018-11-12T00:12:04.403Z,10.46
2018-11-12T00:14:32.180Z,10.48
2018-11-12T00:17:01.099Z,10.48
2018-11-12T00:19:29.437Z,10.47
2018-11-12T00:21:57.272Z,10.49
2018-11-12T00:24:25.528Z,10.47
2018-11-12T00:26:54.438Z,10.46
2018-11-12T00:29:22.764Z,10.44
2018-11-12T00:31:50.519Z,10.42
2018-11-12T00:34:18.882Z,10.43
2018-11-12T00:36:47.788Z,10.44
2018-11-12T00:39:15.536Z,10.41
2018-11-12T00:41:44.440Z,10.38
2018-11-12T00:44:12.190Z,10.38
2018-11-12T00:46:40.521Z,10.39
2018-11-12T00:49:09.444Z,10.37
2018-11-12T00:51:37.180Z,10.31
2018-11-12T00:54:05.514Z,10.28
2018-11-12T00:56:34.428Z,10.24
2018-11-12T00:59:02.178Z,10.17
2018-11-12T01:01:31.088Z,10.14
2018-11-12T01:03:59.480Z,10.11
2018-11-12T01:06:27.188Z,10.08
2018-11-12T01:08:56.110Z,10.07
2018-11-12T01:11:24.453Z,10.02
2018-11-12T01:13:52.187Z,9.97
2018-11-12T01:16:20.627Z,9.94
2018-11-12T01:18:48.891Z,9.91
2018-11-12T01:21:17.214Z,9.88
2018-11-12T01:23:45.588Z,9.83
2018-11-12T01:26:13.860Z,9.78
2018-11-12T01:28:42.762Z,9.73
2018-11-12T01:31:11.094Z,9.70
2018-11-12T01:33:38.828Z,9.68
2018-11-12T01:36:07.739Z,9.66
2018-11-12T01:38:36.065Z,9.64
2018-11-12T01:41:04.385Z,9.59
2018-11-12T01:43:32.709Z,9.54
2018-11-12T01:46:01.027Z,9.49
2018-11-12T01:48:29.358Z,9.47
2018-11-12T01:50:57.693Z,9.45
2018-11-12T01:53:26.014Z,9.43
2018-11-12T01:55:53.757Z,9.41
2018-11-12T01:58:23.562Z,9.39
2018-11-12T02:00:51.311Z,9.38
2018-11-12T02:03:20.269Z,9.40
2018-11-12T02:05:48.561Z,9.42
2018-11-12T02:08:16.884Z,9.44
2018-11-12T02:10:45.214Z,9.43
2018-11-12T02:13:12.951Z,9.42
2018-11-12T02:15:41.858Z,9.42
2018-11-12T02:18:09.634Z,9.41
2018-11-12T02:20:37.958Z,9.40
2018-11-12T02:23:06.286Z,9.39
2018-11-12T02:25:35.183Z,9.38
2018-11-12T02:28:03.515Z,9.37
2018-11-12T02:30:31.906Z,9.38
2018-11-12T02:33:00.204Z,9.37
2018-11-12T02:35:28.454Z,9.39
2018-11-12T02:37:56.836Z,9.43
2018-11-12T02:40:24.582Z,9.47
2018-11-12T02:42:52.905Z,9.49
2018-11-12T02:45:21.811Z,9.51
2018-11-12T02:47:49.561Z,9.53
2018-11-12T02:50:18.473Z,9.57
2018-11-12T02:52:46.787Z,9.61
2018-11-12T02:55:15.105Z,9.67
2018-11-12T02:57:43.440Z,9.69
2018-11-12T03:00:11.771Z,9.73
2018-11-12T03:02:40.086Z,9.76
2018-11-12T03:05:08.413Z,9.77
2018-11-12T03:07:36.808Z,9.76
2018-11-12T03:10:05.068Z,9.73
2018-11-12T03:12:33.398Z,9.72
2018-11-12T03:15:01.719Z,9.73
2018-11-12T03:17:29.488Z,9.76
2018-11-12T03:19:58.442Z,9.80
2018-11-12T03:22:26.184Z,9.80
2018-11-12T03:24:55.099Z,9.82
2018-11-12T03:27:23.419Z,9.82
2018-11-12T03:29:51.736Z,9.85
2018-11-12T03:32:19.482Z,9.89
2018-11-12T03:34:48.378Z,9.93
2018-11-12T03:37:16.711Z,9.99
2018-11-12T03:39:44.483Z,10.02
2018-11-12T03:42:13.375Z,10.06
2018-11-12T03:44:41.692Z,10.09
2018-11-12T03:47:09.432Z,10.14
2018-11-12T03:49:38.345Z,10.16
2018-11-12T03:52:06.090Z,10.18
2018-11-12T03:54:34.417Z,10.20
2018-11-12T03:57:02.743Z,10.21
2018-11-12T03:59:31.072Z,10.23
2018-11-12T04:01:59.979Z,10.25
2018-11-12T04:04:28.308Z,10.27
2018-11-12T04:06:56.074Z,10.28
2018-11-12T04:09:24.392Z,10.25
2018-11-12T04:11:52.716Z,10.22
2018-11-12T04:14:21.643Z,10.21
2018-11-12T04:16:49.380Z,10.23
2018-11-12T04:19:17.709Z,10.25
2018-11-12T04:21:46.658Z,10.30
2018-11-12T04:24:14.407Z,10.30
2018-11-12T04:26:44.048Z,10.29
2018-11-12T04:29:12.373Z,10.28
2018-11-12T04:31:40.695Z,10.26
2018-11-12T04:34:09.029Z,10.27
2018-11-12T04:36:37.346Z,10.28
2018-11-12T04:39:05.089Z,10.28
2018-11-12T04:41:33.414Z,10.27
2018-11-12T04:44:02.318Z,10.26
2018-11-12T04:46:30.643Z,10.27
2018-11-12T04:48:58.977Z,10.29
2018-11-12T04:51:26.724Z,10.30
2018-11-12T04:53:55.636Z,10.31
2018-11-12T04:56:23.965Z,10.31
2018-11-12T04:58:52.319Z,10.32
2018-11-12T05:01:20.058Z,10.31
2018-11-12T05:03:48.979Z,10.31
2018-11-12T05:06:17.309Z,10.29
2018-11-12T05:08:45.631Z,10.25
2018-11-12T05:11:13.988Z,10.24
2018-11-12T05:13:42.901Z,10.21
2018-11-12T05:16:10.645Z,10.19
2018-11-12T05:18:39.550Z,10.16
2018-11-12T05:21:07.882Z,10.14
2018-11-12T05:23:35.670Z,10.13
2018-11-12T05:26:04.574Z,10.11
2018-11-12T05:28:32.900Z,10.09
2018-11-12T05:31:00.645Z,10.08
2018-11-12T05:33:28.977Z,10.07
2018-11-12T05:35:57.300Z,10.08
2018-11-12T05:38:26.247Z,10.06
2018-11-12T05:40:54.551Z,10.05
2018-11-12T05:43:22.296Z,10.07
2018-11-12T05:45:51.212Z,10.07
2018-11-12T05:48:19.557Z,10.04
2018-11-12T05:50:47.300Z,10.02
2018-11-12T05:53:15.630Z,10.04
2018-11-12T05:55:44.550Z,10.06
2018-11-12T05:58:12.302Z,10.08
2018-11-12T06:00:41.957Z,10.09
2018-11-12T06:03:10.877Z,10.13
2018-11-12T06:05:38.629Z,10.16
2018-11-12T06:08:06.999Z,10.18
2018-11-12T06:10:35.861Z,10.21
2018-11-12T06:13:03.607Z,10.24
2018-11-12T06:15:31.932Z,10.28
2018-11-12T06:18:00.263Z,10.30
2018-11-12T06:20:28.595Z,10.32
2018-11-12T06:22:57.505Z,10.35
2018-11-12T06:25:25.857Z,10.39
2018-11-12T06:27:54.213Z,10.45
2018-11-12T06:30:21.968Z,10.49
2018-11-12T06:32:50.296Z,10.52
2018-11-12T06:35:18.619Z,10.54
2018-11-12T06:37:46.944Z,10.56
2018-11-12T06:40:15.854Z,10.57
2018-11-12T06:42:43.796Z,10.60
2018-11-12T06:45:11.938Z,10.63
2018-11-12T06:47:40.270Z,10.66
2018-11-12T06:50:09.184Z,10.67
2018-11-12T06:52:36.970Z,10.68
2018-11-12T06:55:05.256Z,10.72
2018-11-12T06:57:34.172Z,10.75
2018-11-12T07:00:01.916Z,10.78
2018-11-12T07:02:30.845Z,10.81
2018-11-12T07:04:59.199Z,10.84
2018-11-12T07:07:27.284Z,10.88
2018-11-12T07:09:56.197Z,10.88
2018-11-12T07:12:23.946Z,10.88
2018-11-12T07:14:52.281Z,10.89
2018-11-12T07:17:23.512Z,10.88
2018-11-12T07:19:52.468Z,10.88
2018-11-12T07:22:20.208Z,10.90
2018-11-12T07:24:48.552Z,10.93
2018-11-12T07:27:17.501Z,10.96
2018-11-12T07:29:45.252Z,10.97
2018-11-12T07:32:13.585Z,10.99
2018-11-12T07:34:41.921Z,11.02
2018-11-12T07:37:10.844Z,11.05
2018-11-12T07:39:39.169Z,11.07
2018-11-12T07:42:07.071Z,11.09
2018-11-12T07:44:35.281Z,11.13
2018-11-12T07:47:04.437Z,11.16
2018-11-12T07:49:33.346Z,11.19
2018-11-12T07:52:01.471Z,11.23
2018-11-12T07:54:29.231Z,11.26
2018-11-12T07:56:58.137Z,11.29
2018-11-12T07:59:25.939Z,11.32
2018-11-12T08:01:54.233Z,11.35
2018-11-12T08:04:23.145Z,11.40
2018-11-12T08:06:51.482Z,11.44
2018-11-12T08:09:19.826Z,11.48
2018-11-12T08:11:47.569Z,11.53
2018-11-12T08:14:16.470Z,11.58
2018-11-12T08:16:44.221Z,11.64
2018-11-12T08:19:12.567Z,11.70
2018-11-12T08:21:41.487Z,11.75
2018-11-12T08:24:09.903Z,11.77
2018-11-12T08:26:38.168Z,11.82
2018-11-12T08:29:06.767Z,11.87
2018-11-12T08:31:35.117Z,11.91
2018-11-12T08:34:03.458Z,11.97
2018-11-12T08:36:31.586Z,12.02
2018-11-12T08:38:59.919Z,12.09
2018-11-12T08:41:28.240Z,12.13
2018-11-12T08:43:57.161Z,12.16
2018-11-12T08:46:24.926Z,12.19
2018-11-12T08:48:53.332Z,12.26
2018-11-12T08:51:22.187Z,12.36
2018-11-12T08:53:50.550Z,12.45
2018-11-12T08:56:18.682Z,12.55
2018-11-12T08:58:46.733Z,12.65
2018-11-12T09:01:15.065Z,12.74
2018-11-12T09:03:43.388Z,12.81
2018-11-12T09:06:11.724Z,12.88
2018-11-12T09:08:40.633Z,12.97
2018-11-12T09:11:08.961Z,13.02
2018-11-12T09:13:36.706Z,13.09
2018-11-12T09:16:05.620Z,13.13
2018-11-12T09:18:33.367Z,13.19
2018-11-12T09:21:02.296Z,13.28
2018-11-12T09:23:30.219Z,13.34
2018-11-12T09:25:58.402Z,13.37
2018-11-12T09:28:26.733Z,13.38
2018-11-12T09:30:56.311Z,13.37
2018-11-12T09:33:23.406Z,13.34
2018-11-12T09:35:51.746Z,13.38
2018-11-12T09:40:48.976Z,13.37
2018-11-12T09:43:17.354Z,13.38
2018-11-12T09:45:45.106Z,13.40
2018-11-12T09:48:13.396Z,13.42
2018-11-12T09:50:42.300Z,13.46
2018-11-12T09:53:10.616Z,13.50
2018-11-12T09:55:38.963Z,13.51
2018-11-12T09:58:07.301Z,13.51
2018-11-12T10:00:35.866Z,13.51
2018-11-12T10:03:05.074Z,13.54
2018-11-12T10:05:33.731Z,13.57
2018-11-12T10:08:02.168Z,13.62
2018-11-12T10:10:31.349Z,13.67
2018-11-12T10:12:59.086Z,13.72
2018-11-12T10:15:28.894Z,13.78
2018-11-12T10:17:57.999Z,13.83
2018-11-12T10:20:24.153Z,13.87
2018-11-12T10:22:52.976Z,13.89
2018-11-12T10:25:20.731Z,13.91
2018-11-12T10:27:49.069Z,13.95
2018-11-12T10:30:17.401Z,13.98
2018-11-12T10:32:45.789Z,14.01
2018-11-12T10:35:14.709Z,14.05
2018-11-12T10:37:42.558Z,14.05
2018-11-12T10:40:11.392Z,14.04
2018-11-12T10:42:39.811Z,13.97
2018-11-12T10:45:08.075Z,13.98
2018-11-12T10:47:35.945Z,13.96
2018-11-12T10:50:04.159Z,13.91
2018-11-12T10:52:33.070Z,13.89
2018-11-12T10:55:04.891Z,13.87
2018-11-12T10:57:29.149Z,13.93
2018-11-12T10:59:57.699Z,14.03
2018-11-12T11:02:26.500Z,14.09
2018-11-12T11:04:54.251Z,14.17
2018-11-12T11:07:22.728Z,14.21
2018-11-12T11:09:51.056Z,14.26
2018-11-12T11:12:20.195Z,14.31
2018-11-12T11:14:48.290Z,14.34
2018-11-12T11:17:16.175Z,14.33
2018-11-12T11:19:44.470Z,14.34
2018-11-12T11:22:13.492Z,14.37
2018-11-12T11:24:41.273Z,14.44
2018-11-12T11:27:09.600Z,14.51
2018-11-12T11:29:37.939Z,14.56
2018-11-12T11:32:07.216Z,14.55
2018-11-12T11:34:35.572Z,14.55
2018-11-12T11:37:04.605Z,14.55
2018-11-12T11:39:32.548Z,14.55
2018-11-12T11:42:01.313Z,14.56
2018-11-12T11:44:29.588Z,14.53
2018-11-12T11:46:58.505Z,14.50
2018-11-12T11:49:26.269Z,14.46
2018-11-12T11:51:55.206Z,14.49
2018-11-12T11:54:23.057Z,14.51
2018-11-12T11:56:52.168Z,14.49
2018-11-12T11:59:20.430Z,14.43
2018-11-12T12:01:48.208Z,14.44
2018-11-12T12:04:17.165Z,14.45
2018-11-12T12:06:45.511Z,14.40
2018-11-12T12:09:14.224Z,14.39
2018-11-12T12:11:42.559Z,14.38
2018-11-12T12:14:10.921Z,14.35
2018-11-12T12:16:39.312Z,14.33
2018-11-12T12:19:07.598Z,14.28
2018-11-12T12:21:35.922Z,14.27
2018-11-12T12:24:04.257Z,14.27
2018-11-12T12:26:32.616Z,14.20
2018-11-12T12:29:01.095Z,14.16
2018-11-12T12:31:29.430Z,14.12
2018-11-12T12:33:57.785Z,14.05
2018-11-12T12:36:26.205Z,13.99
2018-11-12T12:38:54.510Z,13.98
2018-11-12T12:41:23.600Z,14.00
2018-11-12T12:43:51.987Z,14.05
2018-11-12T12:46:19.739Z,14.08
2018-11-12T12:48:48.670Z,14.09
2018-11-12T12:51:17.335Z,14.11
2018-11-12T12:53:45.394Z,14.03
2018-11-12T12:56:13.190Z,13.96
2018-11-12T12:58:41.585Z,13.93
2018-11-12T13:01:10.642Z,13.90
2018-11-12T13:03:38.465Z,13.92
2018-11-12T13:06:07.539Z,13.93
2018-11-12T13:08:35.738Z,13.92
2018-11-12T13:11:04.038Z,13.92
2018-11-12T13:13:31.797Z,13.91
2018-11-12T13:16:01.030Z,13.89
2018-11-12T13:18:29.075Z,13.88
2018-11-12T13:20:57.486Z,13.89
2018-11-12T13:23:25.162Z,13.89
2018-11-12T13:25:54.075Z,13.88
2018-11-12T13:28:22.408Z,13.85
2018-11-12T13:30:51.197Z,13.82
2018-11-12T13:33:19.522Z,13.83
2018-11-12T13:35:47.912Z,13.77
2018-11-12T13:38:16.341Z,13.73
2018-11-12T13:40:44.745Z,13.69
2018-11-12T13:43:13.079Z,13.70
2018-11-12T13:45:41.516Z,13.73
2018-11-12T13:48:09.362Z,13.73
2018-11-12T13:50:39.867Z,13.74
2018-11-12T13:53:08.808Z,13.72
2018-11-12T13:55:38.087Z,13.71
2018-11-12T13:58:07.299Z,13.69
2018-11-12T14:00:35.735Z,13.66
2018-11-12T14:03:04.156Z,13.65
2018-11-12T14:05:31.968Z,13.63
2018-11-12T14:08:00.851Z,13.61
2018-11-12T14:10:29.288Z,13.53
2018-11-12T14:12:57.622Z,13.50
2018-11-12T14:15:25.378Z,13.45
2018-11-12T14:17:54.294Z,13.43
2018-11-12T14:20:22.228Z,13.42
2018-11-12T14:22:51.349Z,13.42
2018-11-12T14:25:20.023Z,13.41
2018-11-12T14:27:48.711Z,13.39
2018-11-12T14:30:16.128Z,13.35
2018-11-12T14:32:44.469Z,13.33
2018-11-12T14:35:12.866Z,13.31
2018-11-12T14:37:41.775Z,13.28
2018-11-12T14:40:10.178Z,13.25
2018-11-12T14:42:39.331Z,13.23
2018-11-12T14:45:07.121Z,13.20
2018-11-12T14:47:36.023Z,13.18
2018-11-12T14:50:03.775Z,13.16
2018-11-12T14:52:32.777Z,13.14
2018-11-12T14:55:03.016Z,13.11
2018-11-12T14:57:32.251Z,13.09
2018-11-12T15:00:00.096Z,13.06
2018-11-12T15:02:28.503Z,13.03
2018-11-12T15:04:56.844Z,13.03
2018-11-12T15:07:25.253Z,13.01
2018-11-12T15:09:53.637Z,12.99
2018-11-12T15:12:21.990Z,12.96
2018-11-12T15:14:50.388Z,12.97
2018-11-12T15:17:18.069Z,12.95
2018-11-12T15:19:47.943Z,12.94
2018-11-12T15:22:16.285Z,12.93
2018-11-12T15:24:44.044Z,12.95
2018-11-12T15:27:12.956Z,12.96
2018-11-12T15:29:41.288Z,12.98
2018-11-12T15:32:09.762Z,12.96
2018-11-12T15:34:38.160Z,12.94
2018-11-12T15:37:06.929Z,12.93
2018-11-12T15:39:34.326Z,12.91
2018-11-12T15:42:03.599Z,12.88
2018-11-12T15:44:31.294Z,12.85
2018-11-12T15:47:00.616Z,12.85
2018-11-12T15:49:29.127Z,12.83
2018-11-12T15:51:57.458Z,12.82
2018-11-12T15:54:26.065Z,12.81
2018-11-12T15:56:54.713Z,12.80
2018-11-12T15:59:23.044Z,12.79
2018-11-12T16:01:51.358Z,12.77
2018-11-12T16:04:20.059Z,12.75
2018-11-12T16:06:48.585Z,12.74
2018-11-12T16:09:17.581Z,12.74
2018-11-12T16:11:45.347Z,12.73
2018-11-12T16:14:14.536Z,12.74
2018-11-12T16:16:42.882Z,12.78
2018-11-12T16:19:11.265Z,12.80
2018-11-12T16:21:39.048Z,12.81
2018-11-12T16:24:07.310Z,12.83
2018-11-12T16:26:36.264Z,12.86
2018-11-12T16:29:04.585Z,12.90
2018-11-12T16:31:32.331Z,12.93
2018-11-12T16:34:00.667Z,12.96
2018-11-12T16:36:29.121Z,12.94
2018-11-12T16:38:57.363Z,12.95
2018-11-12T16:41:25.715Z,12.94
2018-11-12T16:43:54.646Z,12.93
2018-11-12T16:46:22.994Z,12.90
2018-11-12T16:48:51.317Z,12.85
2018-11-12T16:51:19.659Z,12.84
2018-11-12T16:53:48.008Z,12.85
2018-11-12T16:56:16.323Z,12.85
2018-11-12T16:58:44.676Z,12.85
2018-11-12T17:01:13.021Z,12.88
2018-11-12T17:03:41.312Z,12.90
2018-11-12T17:06:09.688Z,12.90
2018-11-12T17:08:37.442Z,12.92
2018-11-12T17:11:06.384Z,12.92
2018-11-12T17:13:34.708Z,12.98
2018-11-12T17:16:03.069Z,13.01
2018-11-12T17:18:31.432Z,13.03
2018-11-12T17:20:59.212Z,13.03
2018-11-12T17:23:27.588Z,13.03
2018-11-12T17:25:55.985Z,13.02
2018-11-12T17:28:24.939Z,13.01
2018-11-12T17:30:53.374Z,13.01
2018-11-12T17:33:21.607Z,13.00
2018-11-12T17:35:49.469Z,12.97
2018-11-12T17:38:18.380Z,12.96
2018-11-12T17:40:46.199Z,12.98
2018-11-12T17:43:14.550Z,13.02
2018-11-12T17:45:43.504Z,13.04
2018-11-12T17:48:11.895Z,13.10
2018-11-12T17:50:40.308Z,13.12
2018-11-12T17:53:08.632Z,13.12
2018-11-12T17:55:36.984Z,13.14
2018-11-12T17:58:05.650Z,13.17
2018-11-12T18:00:33.985Z,13.19
2018-11-12T18:03:02.362Z,13.19
2018-11-12T18:05:30.765Z,13.17
2018-11-12T18:07:59.198Z,13.18
2018-11-12T18:10:27.473Z,13.17
2018-11-12T18:12:55.850Z,13.17
2018-11-12T18:15:23.659Z,13.15
2018-11-12T18:17:52.557Z,13.13
2018-11-12T18:20:20.952Z,13.13
2018-11-12T18:22:49.284Z,13.14
2018-11-12T18:25:17.918Z,13.16
2018-11-12T18:27:46.327Z,13.18
2018-11-12T18:30:14.252Z,13.19
2018-11-12T18:32:43.003Z,13.20
2018-11-12T18:35:11.338Z,13.21
2018-11-12T18:37:39.806Z,13.23
2018-11-12T18:40:08.119Z,13.22
2018-11-12T18:42:35.977Z,13.23
2018-11-12T18:45:04.901Z,13.25
2018-11-12T18:47:33.315Z,13.28
2018-11-12T18:50:01.696Z,13.31
2018-11-12T18:52:30.991Z,13.35
2018-11-12T18:54:58.991Z,13.39
2018-11-12T18:57:27.352Z,13.43
2018-11-12T18:59:56.074Z,13.45
2018-11-12T19:02:24.397Z,13.48
2018-11-12T19:04:52.760Z,13.45
2018-11-12T19:07:21.103Z,13.51
2018-11-12T19:09:49.438Z,13.52
2018-11-12T19:12:17.790Z,13.54
2018-11-12T19:14:46.471Z,13.58
2018-11-12T19:17:18.441Z,13.58
2018-11-12T19:19:47.050Z,13.60
2018-11-12T19:22:17.225Z,13.57
2018-11-12T19:24:58.070Z,13.56
2018-11-12T19:27:27.065Z,13.52
2018-11-12T19:29:56.057Z,13.48
2018-11-12T19:32:24.206Z,13.43
2018-11-12T19:34:54.509Z,13.37
2018-11-12T19:37:22.945Z,13.34
2018-11-12T19:39:51.556Z,13.32
2018-11-12T19:42:20.238Z,13.30
2018-11-12T19:44:48.896Z,13.31
2018-11-12T19:47:17.625Z,13.27
2018-11-12T19:49:46.384Z,13.28
2018-11-12T19:52:14.740Z,13.27
2018-11-12T19:54:43.377Z,13.28
2018-11-12T19:57:11.723Z,13.30
2018-11-12T19:59:41.168Z,13.28
2018-11-12T20:02:10.174Z,13.28
2018-11-12T20:04:38.737Z,13.26
2018-11-12T20:07:07.382Z,13.27
2018-11-12T20:09:38.203Z,13.29
2018-11-12T20:12:06.175Z,13.27
2018-11-12T20:14:34.598Z,13.30
2018-11-12T20:17:03.513Z,13.27
2018-11-12T20:19:31.270Z,13.26
2018-11-12T20:22:00.467Z,13.31
2018-11-12T20:24:28.213Z,13.31
2018-11-12T20:26:57.304Z,13.36
2018-11-12T20:29:25.640Z,13.39
2018-11-12T20:31:53.421Z,13.39
2018-11-12T20:34:22.357Z,13.41
2018-11-12T20:36:50.810Z,13.44
2018-11-12T20:39:19.173Z,13.46
2018-11-12T20:41:47.916Z,13.45
2018-11-12T20:44:16.673Z,13.46
2018-11-12T20:46:45.033Z,13.47
2018-11-12T20:49:13.646Z,13.46
2018-11-12T20:51:42.027Z,13.49
2018-11-12T20:54:10.434Z,13.51
2018-11-12T20:56:39.136Z,13.53
2018-11-12T20:59:08.474Z,13.52
2018-11-12T21:01:37.074Z,13.55
2018-11-12T21:04:05.420Z,13.57
2018-11-12T21:06:33.800Z,13.60
2018-11-12T21:09:01.551Z,13.62
2018-11-12T21:11:30.522Z,13.63
2018-11-12T21:13:59.109Z,13.66
2018-11-12T21:16:27.469Z,13.67
2018-11-12T21:18:56.088Z,13.66
2018-11-12T21:21:24.447Z,13.71
2018-11-12T21:23:53.064Z,13.74
2018-11-12T21:26:21.529Z,13.78
2018-11-12T21:28:49.867Z,13.79
2018-11-12T21:31:20.047Z,13.82
2018-11-12T21:33:48.445Z,13.83
2018-11-12T21:36:16.183Z,13.83
2018-11-12T21:38:45.898Z,13.85
2018-11-12T21:41:14.601Z,13.88
2018-11-12T21:43:42.939Z,13.92
2018-11-12T21:46:12.781Z,13.95
2018-11-12T21:48:40.550Z,13.96
2018-11-12T21:51:10.584Z,13.99
2018-11-12T21:53:38.979Z,13.98
2018-11-12T21:56:07.412Z,13.99
2018-11-12T21:58:35.789Z,14.02
2018-11-12T22:01:03.500Z,14.07
2018-11-12T22:03:32.404Z,14.11
2018-11-12T22:06:00.738Z,14.13
2018-11-12T22:08:28.549Z,14.15
2018-11-12T22:10:57.406Z,14.13
2018-11-12T22:13:25.740Z,14.15
2018-11-12T22:15:54.074Z,14.11
2018-11-12T22:18:22.399Z,14.05
2018-11-12T22:20:50.745Z,14.09
2018-11-12T22:23:19.064Z,14.06
2018-11-12T22:25:46.810Z,14.04
2018-11-12T22:28:15.746Z,14.02
2018-11-12T22:30:44.081Z,13.95
2018-11-12T22:33:12.400Z,13.89
2018-11-12T22:35:40.740Z,13.85
2018-11-12T22:38:09.080Z,13.87
2018-11-12T22:40:36.822Z,13.84
2018-11-12T22:43:05.740Z,13.82
2018-11-12T22:45:34.398Z,13.83
2018-11-12T22:48:02.671Z,13.84
2018-11-12T22:50:31.016Z,13.82
2018-11-12T22:52:59.670Z,13.84
2018-11-12T22:55:28.024Z,13.84
2018-11-12T22:57:56.729Z,13.86
2018-11-12T23:00:24.473Z,13.85
2018-11-12T23:02:53.433Z,13.89
2018-11-12T23:05:21.764Z,13.88
2018-11-12T23:07:50.099Z,13.91
2018-11-12T23:10:18.439Z,13.94
2018-11-12T23:12:47.242Z,13.96
2018-11-12T23:15:14.767Z,13.97
2018-11-12T23:17:43.110Z,13.97
2018-11-12T23:20:11.842Z,13.99
2018-11-12T23:22:39.761Z,13.97
2018-11-12T23:25:08.688Z,13.99
2018-11-12T23:27:36.440Z,14.00
2018-11-12T23:30:04.773Z,14.05
2018-11-12T23:32:33.109Z,14.00
2018-11-12T23:35:02.150Z,13.97
2018-11-12T23:37:30.207Z,13.97
2018-11-12T23:39:59.123Z,13.98
2018-11-12T23:42:27.387Z,13.96
2018-11-12T23:44:55.202Z,13.95
2018-11-12T23:47:24.114Z,13.96
2018-11-12T23:49:52.442Z,13.95
2018-11-12T23:52:20.198Z,13.97
2018-11-12T23:54:48.705Z,14.01
2018-11-12T23:57:17.499Z,14.03
2018-11-12T23:59:45.270Z,14.11
